sensor_id;sensor_type;location;lat;lon;timestamp;P1;durP1;ratioP1;P2;durP2;ratioP2
11300;SDS011;5706;50.650;13.380;2022-12-18T00:17:25;12.93;;;6.83;;
11300;SDS011;5706;50.650;13.380;2022-12-18T00:19:53;11.53;;;5.97;;
11300;SDS011;5706;50.650;13.380;2022-12-18T03:02:47;6.83;;;3.83;;
11300;SDS011;5706;50.650;13.380;2022-12-18T03:05:22;9.07;;;3.80;;
11300;SDS011;5706;50.650;13.380;2022-12-18T03:08:00;4.73;;;2.33;;
11300;SDS011;5706;50.650;13.380;2022-12-18T03:10:35;7.07;;;3.50;;
11300;SDS011;5706;50.650;13.380;2022-12-18T03:13:12;7.47;;;4.03;;
11300;SDS011;5706;50.650;13.380;2022-12-18T03:15:48;9.70;;;3.90;;
11300;SDS011;5706;50.650;13.380;2022-12-18T03:18:19;7.33;;;4.20;;
11300;SDS011;5706;50.650;13.380;2022-12-18T03:20:53;4.47;;;2.60;;
11300;SDS011;5706;50.650;13.380;2022-12-18T03:23:28;5.73;;;3.03;;
11300;SDS011;5706;50.650;13.380;2022-12-18T03:26:05;8.07;;;3.37;;
11300;SDS011;5706;50.650;13.380;2022-12-18T03:28:38;8.60;;;3.20;;
11300;SDS011;5706;50.650;13.380;2022-12-18T03:31:15;9.20;;;4.23;;
11300;SDS011;5706;50.650;13.380;2022-12-18T03:33:46;6.47;;;3.00;;
11300;SDS011;5706;50.650;13.380;2022-12-18T03:36:19;7.47;;;3.80;;
11300;SDS011;5706;50.650;13.380;2022-12-18T03:38:47;8.77;;;3.33;;
11300;SDS011;5706;50.650;13.380;2022-12-18T03:41:16;4.90;;;2.43;;
11300;SDS011;5706;50.650;13.380;2022-12-18T03:43:52;6.37;;;3.60;;
11300;SDS011;5706;50.650;13.380;2022-12-18T03:46:33;6.50;;;3.43;;
11300;SDS011;5706;50.650;13.380;2022-12-18T03:49:14;4.00;;;2.43;;
11300;SDS011;5706;50.650;13.380;2022-12-18T03:51:52;4.43;;;2.87;;
11300;SDS011;5706;50.650;13.380;2022-12-18T03:54:29;8.47;;;3.60;;
11300;SDS011;5706;50.650;13.380;2022-12-18T03:57:01;3.53;;;2.63;;
11300;SDS011;5706;50.650;13.380;2022-12-18T03:59:38;5.60;;;2.70;;
11300;SDS011;5706;50.650;13.380;2022-12-18T04:02:10;3.87;;;2.57;;
11300;SDS011;5706;50.650;13.380;2022-12-18T04:04:38;9.70;;;5.77;;
11300;SDS011;5706;50.650;13.380;2022-12-18T04:07:08;4.93;;;3.13;;
11300;SDS011;5706;50.650;13.380;2022-12-18T04:09:38;5.93;;;3.50;;
11300;SDS011;5706;50.650;13.380;2022-12-18T04:12:08;5.13;;;3.20;;
11300;SDS011;5706;50.650;13.380;2022-12-18T04:14:36;3.83;;;3.20;;
11300;SDS011;5706;50.650;13.380;2022-12-18T04:17:04;5.47;;;3.10;;
11300;SDS011;5706;50.650;13.380;2022-12-18T04:19:33;5.33;;;2.53;;
11300;SDS011;5706;50.650;13.380;2022-12-18T04:22:01;2.60;;;2.40;;
11300;SDS011;5706;50.650;13.380;2022-12-18T04:24:29;6.00;;;2.83;;
11300;SDS011;5706;50.650;13.380;2022-12-18T04:26:56;5.17;;;3.17;;
11300;SDS011;5706;50.650;13.380;2022-12-18T04:29:24;4.33;;;3.10;;
11300;SDS011;5706;50.650;13.380;2022-12-18T04:31:52;6.90;;;3.57;;
11300;SDS011;5706;50.650;13.380;2022-12-18T04:34:20;4.07;;;2.43;;
11300;SDS011;5706;50.650;13.380;2022-12-18T04:36:50;3.70;;;2.27;;
11300;SDS011;5706;50.650;13.380;2022-12-18T04:39:17;6.93;;;2.50;;
11300;SDS011;5706;50.650;13.380;2022-12-18T04:41:45;4.00;;;2.37;;
11300;SDS011;5706;50.650;13.380;2022-12-18T04:44:13;2.37;;;1.93;;
11300;SDS011;5706;50.650;13.380;2022-12-18T04:46:41;3.93;;;2.83;;
11300;SDS011;5706;50.650;13.380;2022-12-18T04:49:09;5.17;;;2.30;;
11300;SDS011;5706;50.650;13.380;2022-12-18T04:51:37;3.83;;;2.97;;
11300;SDS011;5706;50.650;13.380;2022-12-18T04:54:07;3.47;;;2.33;;
11300;SDS011;5706;50.650;13.380;2022-12-18T04:56:34;2.40;;;1.73;;
11300;SDS011;5706;50.650;13.380;2022-12-18T04:59:02;2.60;;;2.20;;
11300;SDS011;5706;50.650;13.380;2022-12-18T05:01:30;2.73;;;2.20;;
11300;SDS011;5706;50.650;13.380;2022-12-18T05:04:00;4.87;;;2.13;;
11300;SDS011;5706;50.650;13.380;2022-12-18T05:06:31;3.57;;;3.13;;
11300;SDS011;5706;50.650;13.380;2022-12-18T05:08:59;3.30;;;2.37;;
11300;SDS011;5706;50.650;13.380;2022-12-18T05:11:28;2.87;;;2.30;;
11300;SDS011;5706;50.650;13.380;2022-12-18T05:13:56;6.23;;;3.40;;
11300;SDS011;5706;50.650;13.380;2022-12-18T05:16:24;4.57;;;2.87;;
11300;SDS011;5706;50.650;13.380;2022-12-18T05:18:51;2.10;;;1.73;;
11300;SDS011;5706;50.650;13.380;2022-12-18T05:21:19;5.03;;;1.77;;
11300;SDS011;5706;50.650;13.380;2022-12-18T05:23:47;3.07;;;1.90;;
11300;SDS011;5706;50.650;13.380;2022-12-18T05:26:16;5.90;;;2.37;;
11300;SDS011;5706;50.650;13.380;2022-12-18T05:28:46;7.27;;;3.13;;
11300;SDS011;5706;50.650;13.380;2022-12-18T05:31:14;4.33;;;1.93;;
11300;SDS011;5706;50.650;13.380;2022-12-18T05:33:42;2.60;;;1.97;;
11300;SDS011;5706;50.650;13.380;2022-12-18T05:36:10;4.97;;;2.63;;
11300;SDS011;5706;50.650;13.380;2022-12-18T05:38:38;4.23;;;2.67;;
11300;SDS011;5706;50.650;13.380;2022-12-18T05:41:07;6.57;;;2.50;;
11300;SDS011;5706;50.650;13.380;2022-12-18T05:43:36;3.70;;;1.77;;
11300;SDS011;5706;50.650;13.380;2022-12-18T05:46:07;4.60;;;3.10;;
11300;SDS011;5706;50.650;13.380;2022-12-18T05:48:45;6.07;;;3.23;;
11300;SDS011;5706;50.650;13.380;2022-12-18T05:51:14;7.23;;;3.50;;
11300;SDS011;5706;50.650;13.380;2022-12-18T05:53:52;2.43;;;2.03;;
11300;SDS011;5706;50.650;13.380;2022-12-18T05:56:20;2.47;;;2.23;;
11300;SDS011;5706;50.650;13.380;2022-12-18T05:58:51;4.60;;;2.73;;
11300;SDS011;5706;50.650;13.380;2022-12-18T06:01:22;3.37;;;3.03;;
11300;SDS011;5706;50.650;13.380;2022-12-18T06:03:52;5.67;;;2.80;;
11300;SDS011;5706;50.650;13.380;2022-12-18T06:06:22;4.80;;;3.13;;
11300;SDS011;5706;50.650;13.380;2022-12-18T06:08:51;4.47;;;2.40;;
11300;SDS011;5706;50.650;13.380;2022-12-18T06:11:23;2.60;;;2.40;;
11300;SDS011;5706;50.650;13.380;2022-12-18T06:13:54;8.90;;;2.90;;
11300;SDS011;5706;50.650;13.380;2022-12-18T06:16:24;4.33;;;2.43;;
11300;SDS011;5706;50.650;13.380;2022-12-18T06:18:53;7.43;;;2.73;;
11300;SDS011;5706;50.650;13.380;2022-12-18T06:21:22;5.53;;;2.63;;
11300;SDS011;5706;50.650;13.380;2022-12-18T06:23:50;6.00;;;2.90;;
11300;SDS011;5706;50.650;13.380;2022-12-18T06:26:17;5.00;;;3.23;;
11300;SDS011;5706;50.650;13.380;2022-12-18T06:28:46;9.60;;;3.73;;
11300;SDS011;5706;50.650;13.380;2022-12-18T06:31:16;3.77;;;2.50;;
11300;SDS011;5706;50.650;13.380;2022-12-18T06:33:45;3.90;;;2.77;;
11300;SDS011;5706;50.650;13.380;2022-12-18T06:36:13;7.33;;;2.90;;
11300;SDS011;5706;50.650;13.380;2022-12-18T06:38:42;3.80;;;2.57;;
11300;SDS011;5706;50.650;13.380;2022-12-18T06:41:11;6.37;;;2.90;;
11300;SDS011;5706;50.650;13.380;2022-12-18T06:43:41;8.20;;;3.60;;
11300;SDS011;5706;50.650;13.380;2022-12-18T06:46:10;8.30;;;3.77;;
11300;SDS011;5706;50.650;13.380;2022-12-18T06:48:39;5.23;;;3.57;;
11300;SDS011;5706;50.650;13.380;2022-12-18T06:51:08;7.57;;;4.70;;
11300;SDS011;5706;50.650;13.380;2022-12-18T06:53:36;5.23;;;3.50;;
11300;SDS011;5706;50.650;13.380;2022-12-18T06:56:05;4.27;;;3.87;;
11300;SDS011;5706;50.650;13.380;2022-12-18T06:58:34;5.47;;;3.07;;
11300;SDS011;5706;50.650;13.380;2022-12-18T07:01:01;3.97;;;2.43;;
11300;SDS011;5706;50.650;13.380;2022-12-18T07:03:32;3.70;;;2.93;;
11300;SDS011;5706;50.650;13.380;2022-12-18T07:06:00;2.93;;;2.53;;
11300;SDS011;5706;50.650;13.380;2022-12-18T07:08:30;7.93;;;4.13;;
11300;SDS011;5706;50.650;13.380;2022-12-18T07:10:58;5.17;;;2.80;;
11300;SDS011;5706;50.650;13.380;2022-12-18T07:13:29;5.70;;;3.00;;
11300;SDS011;5706;50.650;13.380;2022-12-18T07:16:02;3.37;;;3.07;;
11300;SDS011;5706;50.650;13.380;2022-12-18T07:18:35;4.37;;;3.27;;
11300;SDS011;5706;50.650;13.380;2022-12-18T07:21:03;7.53;;;4.53;;
11300;SDS011;5706;50.650;13.380;2022-12-18T07:23:34;7.40;;;4.53;;
11300;SDS011;5706;50.650;13.380;2022-12-18T07:26:02;6.93;;;3.13;;
11300;SDS011;5706;50.650;13.380;2022-12-18T07:28:33;7.90;;;5.07;;
11300;SDS011;5706;50.650;13.380;2022-12-18T07:31:02;3.60;;;2.83;;
11300;SDS011;5706;50.650;13.380;2022-12-18T07:33:31;8.87;;;4.13;;
11300;SDS011;5706;50.650;13.380;2022-12-18T07:35:59;8.50;;;3.90;;
11300;SDS011;5706;50.650;13.380;2022-12-18T07:38:26;8.43;;;3.97;;
11300;SDS011;5706;50.650;13.380;2022-12-18T07:40:59;6.10;;;4.03;;
11300;SDS011;5706;50.650;13.380;2022-12-18T07:43:29;9.10;;;3.97;;
11300;SDS011;5706;50.650;13.380;2022-12-18T07:45:57;4.70;;;3.97;;
11300;SDS011;5706;50.650;13.380;2022-12-18T07:48:25;5.10;;;3.30;;
11300;SDS011;5706;50.650;13.380;2022-12-18T07:50:53;7.10;;;4.27;;
11300;SDS011;5706;50.650;13.380;2022-12-18T07:53:28;7.13;;;3.70;;
11300;SDS011;5706;50.650;13.380;2022-12-18T07:55:57;5.07;;;4.20;;
11300;SDS011;5706;50.650;13.380;2022-12-18T07:58:32;6.10;;;4.03;;
11300;SDS011;5706;50.650;13.380;2022-12-18T08:01:03;8.63;;;4.10;;
11300;SDS011;5706;50.650;13.380;2022-12-18T08:03:33;9.67;;;4.60;;
11300;SDS011;5706;50.650;13.380;2022-12-18T08:06:01;9.00;;;5.63;;
11300;SDS011;5706;50.650;13.380;2022-12-18T08:08:32;9.87;;;5.53;;
11300;SDS011;5706;50.650;13.380;2022-12-18T08:11:02;7.87;;;4.40;;
11300;SDS011;5706;50.650;13.380;2022-12-18T08:13:30;11.77;;;5.43;;
11300;SDS011;5706;50.650;13.380;2022-12-18T08:15:59;7.87;;;4.93;;
11300;SDS011;5706;50.650;13.380;2022-12-18T08:18:29;7.93;;;4.60;;
11300;SDS011;5706;50.650;13.380;2022-12-18T08:21:07;9.93;;;5.50;;
11300;SDS011;5706;50.650;13.380;2022-12-18T08:23:35;9.33;;;5.63;;
11300;SDS011;5706;50.650;13.380;2022-12-18T08:26:05;14.17;;;7.23;;
11300;SDS011;5706;50.650;13.380;2022-12-18T08:28:32;16.27;;;7.77;;
11300;SDS011;5706;50.650;13.380;2022-12-18T08:31:00;20.90;;;8.40;;
11300;SDS011;5706;50.650;13.380;2022-12-18T08:33:29;15.03;;;8.07;;
11300;SDS011;5706;50.650;13.380;2022-12-18T08:35:57;15.93;;;8.13;;
11300;SDS011;5706;50.650;13.380;2022-12-18T08:38:25;22.27;;;10.50;;
11300;SDS011;5706;50.650;13.380;2022-12-18T08:40:57;17.97;;;9.13;;
11300;SDS011;5706;50.650;13.380;2022-12-18T08:43:27;14.90;;;9.27;;
11300;SDS011;5706;50.650;13.380;2022-12-18T08:46:18;10.20;;;7.63;;
11300;SDS011;5706;50.650;13.380;2022-12-18T08:48:48;13.33;;;8.77;;
11300;SDS011;5706;50.650;13.380;2022-12-18T08:51:19;12.93;;;7.73;;
11300;SDS011;5706;50.650;13.380;2022-12-18T08:53:47;13.20;;;7.60;;
11300;SDS011;5706;50.650;13.380;2022-12-18T08:56:15;14.13;;;7.37;;
11300;SDS011;5706;50.650;13.380;2022-12-18T08:58:44;16.13;;;7.23;;
11300;SDS011;5706;50.650;13.380;2022-12-18T09:01:12;20.00;;;8.20;;
11300;SDS011;5706;50.650;13.380;2022-12-18T09:03:40;14.57;;;8.30;;
11300;SDS011;5706;50.650;13.380;2022-12-18T09:06:08;9.67;;;6.40;;
11300;SDS011;5706;50.650;13.380;2022-12-18T09:08:39;11.17;;;6.77;;
11300;SDS011;5706;50.650;13.380;2022-12-18T09:11:10;11.30;;;6.97;;
11300;SDS011;5706;50.650;13.380;2022-12-18T09:13:41;12.93;;;6.67;;
11300;SDS011;5706;50.650;13.380;2022-12-18T09:16:10;14.30;;;7.37;;
11300;SDS011;5706;50.650;13.380;2022-12-18T09:18:38;11.80;;;7.43;;
11300;SDS011;5706;50.650;13.380;2022-12-18T09:21:09;11.37;;;6.97;;
11300;SDS011;5706;50.650;13.380;2022-12-18T09:23:39;12.23;;;7.70;;
11300;SDS011;5706;50.650;13.380;2022-12-18T09:26:07;12.80;;;6.97;;
11300;SDS011;5706;50.650;13.380;2022-12-18T09:28:35;13.40;;;7.63;;
11300;SDS011;5706;50.650;13.380;2022-12-18T09:31:04;13.93;;;7.67;;
11300;SDS011;5706;50.650;13.380;2022-12-18T09:33:35;15.23;;;7.60;;
11300;SDS011;5706;50.650;13.380;2022-12-18T09:36:03;16.50;;;9.20;;
11300;SDS011;5706;50.650;13.380;2022-12-18T09:38:34;14.40;;;7.77;;
11300;SDS011;5706;50.650;13.380;2022-12-18T09:41:03;12.93;;;7.73;;
11300;SDS011;5706;50.650;13.380;2022-12-18T09:43:48;13.07;;;7.63;;
11300;SDS011;5706;50.650;13.380;2022-12-18T09:46:34;15.03;;;8.33;;
11300;SDS011;5706;50.650;13.380;2022-12-18T09:49:11;12.17;;;7.50;;
11300;SDS011;5706;50.650;13.380;2022-12-18T09:51:45;12.83;;;7.80;;
11300;SDS011;5706;50.650;13.380;2022-12-18T09:54:20;13.73;;;7.90;;
11300;SDS011;5706;50.650;13.380;2022-12-18T09:56:52;13.30;;;7.33;;
11300;SDS011;5706;50.650;13.380;2022-12-18T09:59:21;11.77;;;6.67;;
11300;SDS011;5706;50.650;13.380;2022-12-18T10:01:53;13.43;;;8.03;;
11300;SDS011;5706;50.650;13.380;2022-12-18T10:04:22;13.70;;;8.13;;
11300;SDS011;5706;50.650;13.380;2022-12-18T10:06:53;16.03;;;7.93;;
11300;SDS011;5706;50.650;13.380;2022-12-18T10:09:31;15.17;;;8.27;;
11300;SDS011;5706;50.650;13.380;2022-12-18T10:12:08;12.63;;;7.00;;
11300;SDS011;5706;50.650;13.380;2022-12-18T10:14:49;13.03;;;6.97;;
11300;SDS011;5706;50.650;13.380;2022-12-18T10:17:31;12.37;;;7.43;;
11300;SDS011;5706;50.650;13.380;2022-12-18T10:20:12;13.63;;;7.13;;
11300;SDS011;5706;50.650;13.380;2022-12-18T10:22:48;11.27;;;6.80;;
11300;SDS011;5706;50.650;13.380;2022-12-18T10:25:24;11.20;;;6.70;;
11300;SDS011;5706;50.650;13.380;2022-12-18T10:28:00;13.07;;;7.00;;
11300;SDS011;5706;50.650;13.380;2022-12-18T10:30:39;13.43;;;7.13;;
11300;SDS011;5706;50.650;13.380;2022-12-18T10:33:08;9.30;;;5.93;;
11300;SDS011;5706;50.650;13.380;2022-12-18T10:35:42;14.27;;;6.97;;
11300;SDS011;5706;50.650;13.380;2022-12-18T10:38:23;11.87;;;6.50;;
11300;SDS011;5706;50.650;13.380;2022-12-18T10:40:54;10.83;;;6.87;;
11300;SDS011;5706;50.650;13.380;2022-12-18T10:43:25;15.73;;;7.17;;
11300;SDS011;5706;50.650;13.380;2022-12-18T10:45:59;13.93;;;7.70;;
11300;SDS011;5706;50.650;13.380;2022-12-18T10:48:39;13.60;;;6.27;;
11300;SDS011;5706;50.650;13.380;2022-12-18T10:51:20;10.20;;;6.77;;
11300;SDS011;5706;50.650;13.380;2022-12-18T10:53:52;8.40;;;5.37;;
11300;SDS011;5706;50.650;13.380;2022-12-18T10:56:24;10.97;;;6.73;;
11300;SDS011;5706;50.650;13.380;2022-12-18T10:58:55;17.73;;;9.07;;
11300;SDS011;5706;50.650;13.380;2022-12-18T11:01:26;19.10;;;9.23;;
11300;SDS011;5706;50.650;13.380;2022-12-18T11:04:01;12.67;;;8.13;;
11300;SDS011;5706;50.650;13.380;2022-12-18T11:06:37;14.23;;;7.70;;
11300;SDS011;5706;50.650;13.380;2022-12-18T11:09:22;13.00;;;6.93;;
11300;SDS011;5706;50.650;13.380;2022-12-18T11:11:51;13.97;;;7.37;;
11300;SDS011;5706;50.650;13.380;2022-12-18T11:14:22;13.37;;;7.07;;
11300;SDS011;5706;50.650;13.380;2022-12-18T11:16:53;13.10;;;7.27;;
11300;SDS011;5706;50.650;13.380;2022-12-18T11:19:26;13.33;;;6.73;;
11300;SDS011;5706;50.650;13.380;2022-12-18T11:22:02;11.73;;;7.30;;
11300;SDS011;5706;50.650;13.380;2022-12-18T11:24:51;12.90;;;6.83;;
11300;SDS011;5706;50.650;13.380;2022-12-18T11:27:22;14.97;;;7.57;;
11300;SDS011;5706;50.650;13.380;2022-12-18T11:29:50;12.93;;;7.30;;
11300;SDS011;5706;50.650;13.380;2022-12-18T11:32:29;10.23;;;6.03;;
11300;SDS011;5706;50.650;13.380;2022-12-18T11:35:04;13.83;;;7.00;;
11300;SDS011;5706;50.650;13.380;2022-12-18T11:37:46;11.20;;;6.83;;
11300;SDS011;5706;50.650;13.380;2022-12-18T11:40:24;13.37;;;7.50;;
11300;SDS011;5706;50.650;13.380;2022-12-18T11:43:01;15.00;;;7.53;;
11300;SDS011;5706;50.650;13.380;2022-12-18T11:45:39;14.23;;;8.23;;
11300;SDS011;5706;50.650;13.380;2022-12-18T11:48:14;14.00;;;7.67;;
11300;SDS011;5706;50.650;13.380;2022-12-18T11:50:49;13.93;;;7.67;;
11300;SDS011;5706;50.650;13.380;2022-12-18T11:53:21;16.50;;;7.30;;
11300;SDS011;5706;50.650;13.380;2022-12-18T11:55:54;13.37;;;7.60;;
11300;SDS011;5706;50.650;13.380;2022-12-18T11:58:41;14.67;;;7.33;;
11300;SDS011;5706;50.650;13.380;2022-12-18T12:01:27;14.13;;;8.47;;
11300;SDS011;5706;50.650;13.380;2022-12-18T12:04:14;12.20;;;6.83;;
11300;SDS011;5706;50.650;13.380;2022-12-18T12:07:06;12.40;;;7.33;;
11300;SDS011;5706;50.650;13.380;2022-12-18T12:09:56;15.70;;;7.47;;
11300;SDS011;5706;50.650;13.380;2022-12-18T12:12:39;15.90;;;8.03;;
11300;SDS011;5706;50.650;13.380;2022-12-18T12:15:31;12.03;;;7.20;;
11300;SDS011;5706;50.650;13.380;2022-12-18T12:18:11;17.70;;;8.13;;
11300;SDS011;5706;50.650;13.380;2022-12-18T12:20:56;11.33;;;5.80;;
11300;SDS011;5706;50.650;13.380;2022-12-18T12:23:36;15.13;;;6.63;;
11300;SDS011;5706;50.650;13.380;2022-12-18T12:26:16;12.63;;;7.57;;
11300;SDS011;5706;50.650;13.380;2022-12-18T12:28:59;12.00;;;7.33;;
11300;SDS011;5706;50.650;13.380;2022-12-18T12:31:50;14.47;;;6.90;;
11300;SDS011;5706;50.650;13.380;2022-12-18T12:34:34;13.80;;;7.30;;
11300;SDS011;5706;50.650;13.380;2022-12-18T12:55:46;12.00;;;6.17;;
11300;SDS011;5706;50.650;13.380;2022-12-18T12:58:16;11.47;;;6.87;;
11300;SDS011;5706;50.650;13.380;2022-12-18T13:00:59;11.60;;;7.03;;
11300;SDS011;5706;50.650;13.380;2022-12-18T13:04:02;12.87;;;6.83;;
11300;SDS011;5706;50.650;13.380;2022-12-18T13:06:43;12.87;;;8.10;;
11300;SDS011;5706;50.650;13.380;2022-12-18T13:09:20;14.23;;;7.43;;
11300;SDS011;5706;50.650;13.380;2022-12-18T13:11:49;13.60;;;7.27;;
11300;SDS011;5706;50.650;13.380;2022-12-18T13:14:35;13.43;;;7.50;;
11300;SDS011;5706;50.650;13.380;2022-12-18T13:17:15;13.93;;;7.13;;
11300;SDS011;5706;50.650;13.380;2022-12-18T13:20:03;13.43;;;6.80;;
11300;SDS011;5706;50.650;13.380;2022-12-18T13:22:37;13.23;;;6.80;;
11300;SDS011;5706;50.650;13.380;2022-12-18T13:28:12;11.87;;;6.43;;
11300;SDS011;5706;50.650;13.380;2022-12-18T13:30:48;13.03;;;6.73;;
11300;SDS011;5706;50.650;13.380;2022-12-18T13:36:26;12.20;;;7.10;;
11300;SDS011;5706;50.650;13.380;2022-12-18T13:45:40;17.37;;;8.60;;
11300;SDS011;5706;50.650;13.380;2022-12-18T13:48:21;14.20;;;8.23;;
11300;SDS011;5706;50.650;13.380;2022-12-18T13:50:55;15.10;;;7.93;;
11300;SDS011;5706;50.650;13.380;2022-12-18T13:53:28;20.03;;;8.47;;
11300;SDS011;5706;50.650;13.380;2022-12-18T13:56:02;13.53;;;8.00;;
11300;SDS011;5706;50.650;13.380;2022-12-18T13:58:30;20.87;;;8.40;;
11300;SDS011;5706;50.650;13.380;2022-12-18T14:00:59;18.93;;;10.17;;
11300;SDS011;5706;50.650;13.380;2022-12-18T14:03:29;18.47;;;8.10;;
11300;SDS011;5706;50.650;13.380;2022-12-18T14:06:04;20.10;;;8.77;;
11300;SDS011;5706;50.650;13.380;2022-12-18T14:08:36;16.87;;;8.67;;
11300;SDS011;5706;50.650;13.380;2022-12-18T14:11:07;19.67;;;8.77;;
11300;SDS011;5706;50.650;13.380;2022-12-18T14:13:47;20.70;;;9.53;;
11300;SDS011;5706;50.650;13.380;2022-12-18T14:16:16;14.27;;;8.53;;
11300;SDS011;5706;50.650;13.380;2022-12-18T14:18:44;16.13;;;8.30;;
11300;SDS011;5706;50.650;13.380;2022-12-18T14:21:17;14.73;;;8.67;;
11300;SDS011;5706;50.650;13.380;2022-12-18T14:23:49;16.60;;;8.77;;
11300;SDS011;5706;50.650;13.380;2022-12-18T14:26:32;21.93;;;9.17;;
11300;SDS011;5706;50.650;13.380;2022-12-18T14:29:00;15.97;;;9.37;;
11300;SDS011;5706;50.650;13.380;2022-12-18T14:32:07;19.70;;;8.23;;
11300;SDS011;5706;50.650;13.380;2022-12-18T14:34:39;19.97;;;8.60;;
11300;SDS011;5706;50.650;13.380;2022-12-18T14:37:09;18.90;;;9.30;;
11300;SDS011;5706;50.650;13.380;2022-12-18T14:39:38;20.63;;;9.90;;
11300;SDS011;5706;50.650;13.380;2022-12-18T14:42:09;23.43;;;10.93;;
11300;SDS011;5706;50.650;13.380;2022-12-18T14:44:37;20.90;;;9.27;;
11300;SDS011;5706;50.650;13.380;2022-12-18T14:47:13;16.90;;;8.60;;
11300;SDS011;5706;50.650;13.380;2022-12-18T14:49:42;22.13;;;8.73;;
11300;SDS011;5706;50.650;13.380;2022-12-18T14:52:17;19.20;;;9.37;;
11300;SDS011;5706;50.650;13.380;2022-12-18T14:54:53;18.23;;;8.63;;
11300;SDS011;5706;50.650;13.380;2022-12-18T14:57:21;21.73;;;8.43;;
11300;SDS011;5706;50.650;13.380;2022-12-18T14:59:51;21.00;;;10.27;;
11300;SDS011;5706;50.650;13.380;2022-12-18T15:02:22;16.00;;;7.83;;
11300;SDS011;5706;50.650;13.380;2022-12-18T15:04:59;20.70;;;9.40;;
11300;SDS011;5706;50.650;13.380;2022-12-18T15:07:38;20.47;;;9.13;;
11300;SDS011;5706;50.650;13.380;2022-12-18T15:10:10;18.17;;;9.30;;
11300;SDS011;5706;50.650;13.380;2022-12-18T15:12:42;22.97;;;9.23;;
11300;SDS011;5706;50.650;13.380;2022-12-18T15:18:17;15.27;;;8.93;;
11300;SDS011;5706;50.650;13.380;2022-12-18T15:20:48;22.37;;;10.00;;
11300;SDS011;5706;50.650;13.380;2022-12-18T15:23:18;19.40;;;9.50;;
11300;SDS011;5706;50.650;13.380;2022-12-18T15:25:49;26.47;;;10.83;;
11300;SDS011;5706;50.650;13.380;2022-12-18T15:28:24;24.63;;;10.50;;
11300;SDS011;5706;50.650;13.380;2022-12-18T15:30:57;20.93;;;9.83;;
11300;SDS011;5706;50.650;13.380;2022-12-18T15:33:34;19.33;;;10.17;;
11300;SDS011;5706;50.650;13.380;2022-12-18T15:36:04;19.43;;;8.70;;
11300;SDS011;5706;50.650;13.380;2022-12-18T15:38:36;21.00;;;11.33;;
11300;SDS011;5706;50.650;13.380;2022-12-18T15:41:04;26.40;;;12.37;;
11300;SDS011;5706;50.650;13.380;2022-12-18T15:43:37;31.10;;;10.80;;
11300;SDS011;5706;50.650;13.380;2022-12-18T15:46:04;28.17;;;11.80;;
11300;SDS011;5706;50.650;13.380;2022-12-18T15:48:39;29.53;;;12.07;;
11300;SDS011;5706;50.650;13.380;2022-12-18T15:51:10;24.60;;;10.70;;
11300;SDS011;5706;50.650;13.380;2022-12-18T15:53:42;22.17;;;11.03;;
11300;SDS011;5706;50.650;13.380;2022-12-18T15:56:10;24.57;;;12.30;;
11300;SDS011;5706;50.650;13.380;2022-12-18T15:58:57;25.63;;;11.73;;
11300;SDS011;5706;50.650;13.380;2022-12-18T16:01:26;32.07;;;13.13;;
11300;SDS011;5706;50.650;13.380;2022-12-18T16:03:57;21.63;;;10.13;;
11300;SDS011;5706;50.650;13.380;2022-12-18T16:06:25;29.20;;;12.13;;
11300;SDS011;5706;50.650;13.380;2022-12-18T16:08:52;25.47;;;11.43;;
11300;SDS011;5706;50.650;13.380;2022-12-18T16:11:21;28.77;;;12.40;;
11300;SDS011;5706;50.650;13.380;2022-12-18T16:14:04;26.73;;;11.23;;
11300;SDS011;5706;50.650;13.380;2022-12-18T16:16:39;30.50;;;11.87;;
11300;SDS011;5706;50.650;13.380;2022-12-18T16:19:08;31.80;;;11.60;;
11300;SDS011;5706;50.650;13.380;2022-12-18T16:21:35;27.30;;;12.60;;
11300;SDS011;5706;50.650;13.380;2022-12-18T16:24:03;26.80;;;10.03;;
11300;SDS011;5706;50.650;13.380;2022-12-18T16:26:31;25.47;;;12.10;;
11300;SDS011;5706;50.650;13.380;2022-12-18T16:28:59;27.57;;;11.00;;
11300;SDS011;5706;50.650;13.380;2022-12-18T16:31:27;24.70;;;10.63;;
11300;SDS011;5706;50.650;13.380;2022-12-18T16:34:13;21.60;;;9.23;;
11300;SDS011;5706;50.650;13.380;2022-12-18T16:36:46;25.67;;;10.30;;
11300;SDS011;5706;50.650;13.380;2022-12-18T16:39:14;19.60;;;9.70;;
11300;SDS011;5706;50.650;13.380;2022-12-18T16:41:42;26.90;;;9.67;;
11300;SDS011;5706;50.650;13.380;2022-12-18T16:44:10;28.83;;;9.73;;
11300;SDS011;5706;50.650;13.380;2022-12-18T16:46:39;21.10;;;10.03;;
11300;SDS011;5706;50.650;13.380;2022-12-18T16:49:08;24.90;;;10.20;;
11300;SDS011;5706;50.650;13.380;2022-12-18T16:51:37;15.70;;;8.87;;
11300;SDS011;5706;50.650;13.380;2022-12-18T16:54:05;20.97;;;9.13;;
11300;SDS011;5706;50.650;13.380;2022-12-18T16:56:33;17.07;;;9.10;;
11300;SDS011;5706;50.650;13.380;2022-12-18T16:59:01;19.50;;;9.30;;
11300;SDS011;5706;50.650;13.380;2022-12-18T17:01:30;13.43;;;8.40;;
11300;SDS011;5706;50.650;13.380;2022-12-18T17:03:59;15.60;;;7.87;;
11300;SDS011;5706;50.650;13.380;2022-12-18T17:06:30;17.43;;;7.93;;
11300;SDS011;5706;50.650;13.380;2022-12-18T17:09:02;18.50;;;9.53;;
11300;SDS011;5706;50.650;13.380;2022-12-18T17:11:37;17.87;;;8.47;;
11300;SDS011;5706;50.650;13.380;2022-12-18T17:14:05;19.33;;;8.10;;
11300;SDS011;5706;50.650;13.380;2022-12-18T17:16:34;20.87;;;8.53;;
11300;SDS011;5706;50.650;13.380;2022-12-18T17:19:02;17.17;;;7.23;;
11300;SDS011;5706;50.650;13.380;2022-12-18T17:21:30;20.10;;;8.67;;
11300;SDS011;5706;50.650;13.380;2022-12-18T17:23:58;17.27;;;7.97;;
11300;SDS011;5706;50.650;13.380;2022-12-18T17:26:28;16.53;;;8.17;;
11300;SDS011;5706;50.650;13.380;2022-12-18T17:28:56;14.20;;;7.90;;
11300;SDS011;5706;50.650;13.380;2022-12-18T17:31:25;13.40;;;7.80;;
11300;SDS011;5706;50.650;13.380;2022-12-18T17:33:55;14.60;;;7.73;;
11300;SDS011;5706;50.650;13.380;2022-12-18T17:36:26;17.50;;;7.33;;
11300;SDS011;5706;50.650;13.380;2022-12-18T17:38:56;15.17;;;7.93;;
11300;SDS011;5706;50.650;13.380;2022-12-18T17:41:28;19.87;;;8.50;;
11300;SDS011;5706;50.650;13.380;2022-12-18T17:43:57;15.07;;;7.50;;
11300;SDS011;5706;50.650;13.380;2022-12-18T17:46:29;13.23;;;7.27;;
11300;SDS011;5706;50.650;13.380;2022-12-18T17:48:59;16.33;;;7.87;;
11300;SDS011;5706;50.650;13.380;2022-12-18T17:51:29;13.47;;;6.37;;
11300;SDS011;5706;50.650;13.380;2022-12-18T17:53:57;15.33;;;7.50;;
11300;SDS011;5706;50.650;13.380;2022-12-18T17:56:25;12.73;;;6.43;;
11300;SDS011;5706;50.650;13.380;2022-12-18T17:58:54;13.93;;;6.63;;
11300;SDS011;5706;50.650;13.380;2022-12-18T18:01:22;13.13;;;7.00;;
11300;SDS011;5706;50.650;13.380;2022-12-18T18:03:51;10.50;;;6.33;;
11300;SDS011;5706;50.650;13.380;2022-12-18T18:06:20;13.57;;;5.90;;
11300;SDS011;5706;50.650;13.380;2022-12-18T18:08:48;12.67;;;6.23;;
11300;SDS011;5706;50.650;13.380;2022-12-18T18:11:16;9.60;;;5.70;;
11300;SDS011;5706;50.650;13.380;2022-12-18T18:14:19;8.93;;;6.20;;
11300;SDS011;5706;50.650;13.380;2022-12-18T18:16:47;13.80;;;7.30;;
11300;SDS011;5706;50.650;13.380;2022-12-18T18:19:17;12.23;;;6.67;;
11300;SDS011;5706;50.650;13.380;2022-12-18T18:21:47;12.00;;;5.33;;
11300;SDS011;5706;50.650;13.380;2022-12-18T18:24:18;13.07;;;7.10;;
11300;SDS011;5706;50.650;13.380;2022-12-18T18:26:49;11.10;;;6.60;;
11300;SDS011;5706;50.650;13.380;2022-12-18T18:29:23;10.83;;;5.60;;
11300;SDS011;5706;50.650;13.380;2022-12-18T18:31:54;12.93;;;6.30;;
11300;SDS011;5706;50.650;13.380;2022-12-18T18:34:23;12.90;;;6.63;;
11300;SDS011;5706;50.650;13.380;2022-12-18T18:36:52;13.37;;;6.67;;
11300;SDS011;5706;50.650;13.380;2022-12-18T18:39:23;15.00;;;7.13;;